sensor_id;sensor_type;location;lat;lon;timestamp;P1;durP1;ratioP1;P2;durP2;ratioP2
74630;SDS011;63138;55.082;38.804;2023-04-08T00:00:04;5.07;;;2.70;;
74630;SDS011;63138;55.082;38.804;2023-04-08T00:02:35;3.83;;;2.50;;
74630;SDS011;63138;55.082;38.804;2023-04-08T00:05:03;5.22;;;2.95;;
74630;SDS011;63138;55.082;38.804;2023-04-08T00:07:32;6.85;;;2.70;;
74630;SDS011;63138;55.082;38.804;2023-04-08T00:09:58;4.60;;;2.90;;
74630;SDS011;63138;55.082;38.804;2023-04-08T00:12:25;5.07;;;2.40;;
74630;SDS011;63138;55.082;38.804;2023-04-08T00:14:56;4.82;;;2.72;;
74630;SDS011;63138;55.082;38.804;2023-04-08T00:17:50;3.97;;;1.98;;
74630;SDS011;63138;55.082;38.804;2023-04-08T00:20:19;5.25;;;2.40;;
74630;SDS011;63138;55.082;38.804;2023-04-08T00:25:42;3.60;;;2.27;;
74630;SDS011;63138;55.082;38.804;2023-04-08T00:28:11;4.18;;;2.08;;
74630;SDS011;63138;55.082;38.804;2023-04-08T00:30:44;4.72;;;2.30;;
74630;SDS011;63138;55.082;38.804;2023-04-08T00:33:10;4.70;;;2.15;;
74630;SDS011;63138;55.082;38.804;2023-04-08T00:38:34;3.60;;;2.20;;
74630;SDS011;63138;55.082;38.804;2023-04-08T00:41:26;4.70;;;2.30;;
74630;SDS011;63138;55.082;38.804;2023-04-08T00:43:56;4.32;;;2.40;;
74630;SDS011;63138;55.082;38.804;2023-04-08T00:46:22;4.35;;;2.80;;
74630;SDS011;63138;55.082;38.804;2023-04-08T00:48:48;3.60;;;2.60;;
74630;SDS011;63138;55.082;38.804;2023-04-08T00:51:18;3.70;;;2.42;;
74630;SDS011;63138;55.082;38.804;2023-04-08T00:54:08;3.60;;;2.17;;
74630;SDS011;63138;55.082;38.804;2023-04-08T00:56:37;4.00;;;2.65;;
74630;SDS011;63138;55.082;38.804;2023-04-08T00:59:03;3.77;;;2.40;;
74630;SDS011;63138;55.082;38.804;2023-04-08T01:09:34;4.57;;;2.60;;
74630;SDS011;63138;55.082;38.804;2023-04-08T01:12:04;3.60;;;2.37;;
74630;SDS011;63138;55.082;38.804;2023-04-08T01:17:31;5.45;;;2.40;;
74630;SDS011;63138;55.082;38.804;2023-04-08T01:20:01;3.65;;;2.17;;
74630;SDS011;63138;55.082;38.804;2023-04-08T01:25:23;5.23;;;2.40;;
74630;SDS011;63138;55.082;38.804;2023-04-08T01:27:57;5.40;;;2.40;;
74630;SDS011;63138;55.082;38.804;2023-04-08T01:30:31;4.10;;;2.53;;
74630;SDS011;63138;55.082;38.804;2023-04-08T01:32:59;5.45;;;2.80;;
74630;SDS011;63138;55.082;38.804;2023-04-08T01:35:27;6.57;;;2.50;;
74630;SDS011;63138;55.082;38.804;2023-04-08T01:37:57;6.53;;;2.77;;
74630;SDS011;63138;55.082;38.804;2023-04-08T01:40:24;4.40;;;2.55;;
74630;SDS011;63138;55.082;38.804;2023-04-08T01:42:53;4.85;;;2.40;;
74630;SDS011;63138;55.082;38.804;2023-04-08T01:45:23;4.45;;;2.55;;
74630;SDS011;63138;55.082;38.804;2023-04-08T01:47:50;3.72;;;2.40;;
74630;SDS011;63138;55.082;38.804;2023-04-08T01:50:17;8.03;;;2.90;;
74630;SDS011;63138;55.082;38.804;2023-04-08T01:55:37;3.88;;;2.33;;
74630;SDS011;63138;55.082;38.804;2023-04-08T01:58:08;4.57;;;2.53;;
74630;SDS011;63138;55.082;38.804;2023-04-08T02:00:40;3.00;;;2.03;;
74630;SDS011;63138;55.082;38.804;2023-04-08T02:03:08;3.80;;;2.43;;
74630;SDS011;63138;55.082;38.804;2023-04-08T02:05:38;6.13;;;2.97;;
74630;SDS011;63138;55.082;38.804;2023-04-08T02:11:02;4.00;;;2.55;;
74630;SDS011;63138;55.082;38.804;2023-04-08T02:13:31;6.47;;;2.67;;
74630;SDS011;63138;55.082;38.804;2023-04-08T02:16:39;4.30;;;2.50;;
74630;SDS011;63138;55.082;38.804;2023-04-08T02:19:19;5.05;;;2.58;;
74630;SDS011;63138;55.082;38.804;2023-04-08T02:22:01;4.38;;;2.88;;
74630;SDS011;63138;55.082;38.804;2023-04-08T02:25:00;4.32;;;2.90;;
74630;SDS011;63138;55.082;38.804;2023-04-08T02:27:33;6.13;;;3.60;;
74630;SDS011;63138;55.082;38.804;2023-04-08T02:30:05;5.17;;;2.90;;
74630;SDS011;63138;55.082;38.804;2023-04-08T02:32:35;3.65;;;2.45;;
74630;SDS011;63138;55.082;38.804;2023-04-08T02:37:58;3.17;;;2.35;;
74630;SDS011;63138;55.082;38.804;2023-04-08T02:40:30;4.75;;;3.28;;
74630;SDS011;63138;55.082;38.804;2023-04-08T02:43:04;5.77;;;3.17;;
74630;SDS011;63138;55.082;38.804;2023-04-08T02:48:31;4.70;;;2.92;;
74630;SDS011;63138;55.082;38.804;2023-04-08T02:51:03;5.00;;;2.83;;
74630;SDS011;63138;55.082;38.804;2023-04-08T02:53:30;6.68;;;3.13;;
74630;SDS011;63138;55.082;38.804;2023-04-08T02:55:56;4.47;;;2.40;;
74630;SDS011;63138;55.082;38.804;2023-04-08T02:58:25;5.75;;;2.60;;
74630;SDS011;63138;55.082;38.804;2023-04-08T03:00:51;5.28;;;2.78;;
74630;SDS011;63138;55.082;38.804;2023-04-08T03:03:20;4.53;;;2.67;;
74630;SDS011;63138;55.082;38.804;2023-04-08T03:05:52;4.05;;;2.42;;
74630;SDS011;63138;55.082;38.804;2023-04-08T03:08:19;4.18;;;2.70;;
74630;SDS011;63138;55.082;38.804;2023-04-08T03:10:47;5.22;;;2.40;;
74630;SDS011;63138;55.082;38.804;2023-04-08T03:13:16;5.15;;;3.10;;
74630;SDS011;63138;55.082;38.804;2023-04-08T03:15:44;5.60;;;2.93;;
74630;SDS011;63138;55.082;38.804;2023-04-08T03:18:11;5.15;;;3.33;;
74630;SDS011;63138;55.082;38.804;2023-04-08T03:20:37;5.78;;;3.38;;
74630;SDS011;63138;55.082;38.804;2023-04-08T03:23:05;5.38;;;3.00;;
74630;SDS011;63138;55.082;38.804;2023-04-08T03:25:31;5.82;;;3.05;;
74630;SDS011;63138;55.082;38.804;2023-04-08T03:28:02;7.07;;;3.13;;
74630;SDS011;63138;55.082;38.804;2023-04-08T03:30:29;5.25;;;3.13;;
74630;SDS011;63138;55.082;38.804;2023-04-08T03:32:56;6.32;;;3.03;;
74630;SDS011;63138;55.082;38.804;2023-04-08T03:35:22;5.50;;;2.65;;
74630;SDS011;63138;55.082;38.804;2023-04-08T03:37:49;6.05;;;3.67;;
74630;SDS011;63138;55.082;38.804;2023-04-08T03:40:15;8.07;;;3.70;;
74630;SDS011;63138;55.082;38.804;2023-04-08T03:42:45;7.68;;;3.72;;
74630;SDS011;63138;55.082;38.804;2023-04-08T03:45:11;5.78;;;3.88;;
74630;SDS011;63138;55.082;38.804;2023-04-08T03:47:37;5.22;;;2.88;;
74630;SDS011;63138;55.082;38.804;2023-04-08T03:50:05;5.40;;;3.00;;
74630;SDS011;63138;55.082;38.804;2023-04-08T03:52:33;6.07;;;3.28;;
74630;SDS011;63138;55.082;38.804;2023-04-08T03:55:00;7.10;;;4.10;;
74630;SDS011;63138;55.082;38.804;2023-04-08T03:57:53;6.47;;;3.50;;
74630;SDS011;63138;55.082;38.804;2023-04-08T04:00:21;6.43;;;4.10;;
74630;SDS011;63138;55.082;38.804;2023-04-08T04:02:47;4.87;;;3.37;;
74630;SDS011;63138;55.082;38.804;2023-04-08T04:05:20;6.90;;;3.50;;
74630;SDS011;63138;55.082;38.804;2023-04-08T04:07:46;6.82;;;4.20;;
74630;SDS011;63138;55.082;38.804;2023-04-08T04:10:13;6.78;;;3.92;;
74630;SDS011;63138;55.082;38.804;2023-04-08T04:12:39;6.88;;;3.90;;
74630;SDS011;63138;55.082;38.804;2023-04-08T04:15:10;6.63;;;3.80;;
74630;SDS011;63138;55.082;38.804;2023-04-08T04:17:36;5.85;;;4.30;;
74630;SDS011;63138;55.082;38.804;2023-04-08T04:20:06;11.07;;;4.18;;
74630;SDS011;63138;55.082;38.804;2023-04-08T04:22:33;6.78;;;3.83;;
74630;SDS011;63138;55.082;38.804;2023-04-08T04:24:59;4.90;;;3.53;;
74630;SDS011;63138;55.082;38.804;2023-04-08T04:27:25;8.05;;;4.22;;
74630;SDS011;63138;55.082;38.804;2023-04-08T04:29:53;6.05;;;3.15;;
74630;SDS011;63138;55.082;38.804;2023-04-08T04:32:22;8.00;;;3.75;;
74630;SDS011;63138;55.082;38.804;2023-04-08T04:34:48;6.60;;;3.63;;
74630;SDS011;63138;55.082;38.804;2023-04-08T04:37:40;6.63;;;3.67;;
74630;SDS011;63138;55.082;38.804;2023-04-08T04:41:04;6.07;;;3.40;;
74630;SDS011;63138;55.082;38.804;2023-04-08T04:43:32;9.20;;;3.50;;
74630;SDS011;63138;55.082;38.804;2023-04-08T04:45:59;6.43;;;4.07;;
74630;SDS011;63138;55.082;38.804;2023-04-08T04:48:27;8.10;;;3.73;;
74630;SDS011;63138;55.082;38.804;2023-04-08T04:50:55;8.75;;;4.00;;
74630;SDS011;63138;55.082;38.804;2023-04-08T04:53:22;6.82;;;4.65;;
74630;SDS011;63138;55.082;38.804;2023-04-08T04:55:49;9.68;;;4.43;;
74630;SDS011;63138;55.082;38.804;2023-04-08T04:58:19;6.78;;;4.25;;
74630;SDS011;63138;55.082;38.804;2023-04-08T05:00:46;6.63;;;4.17;;
74630;SDS011;63138;55.082;38.804;2023-04-08T05:03:12;9.45;;;4.43;;
74630;SDS011;63138;55.082;38.804;2023-04-08T05:05:39;7.57;;;4.45;;
74630;SDS011;63138;55.082;38.804;2023-04-08T05:08:29;6.28;;;3.72;;
74630;SDS011;63138;55.082;38.804;2023-04-08T05:11:00;7.95;;;3.75;;
74630;SDS011;63138;55.082;38.804;2023-04-08T05:13:32;8.20;;;4.60;;
74630;SDS011;63138;55.082;38.804;2023-04-08T05:15:58;8.05;;;4.70;;
74630;SDS011;63138;55.082;38.804;2023-04-08T05:18:25;7.68;;;4.65;;
74630;SDS011;63138;55.082;38.804;2023-04-08T05:20:51;7.90;;;4.70;;
74630;SDS011;63138;55.082;38.804;2023-04-08T05:23:17;8.40;;;4.47;;
74630;SDS011;63138;55.082;38.804;2023-04-08T05:25:45;7.88;;;4.15;;
74630;SDS011;63138;55.082;38.804;2023-04-08T05:28:14;6.35;;;4.22;;
74630;SDS011;63138;55.082;38.804;2023-04-08T05:30:46;7.75;;;5.07;;
74630;SDS011;63138;55.082;38.804;2023-04-08T05:33:15;7.25;;;5.95;;
74630;SDS011;63138;55.082;38.804;2023-04-08T05:35:43;8.87;;;5.30;;
74630;SDS011;63138;55.082;38.804;2023-04-08T05:38:09;7.30;;;4.35;;
74630;SDS011;63138;55.082;38.804;2023-04-08T05:43:35;9.77;;;4.53;;
74630;SDS011;63138;55.082;38.804;2023-04-08T05:46:07;9.77;;;5.55;;
74630;SDS011;63138;55.082;38.804;2023-04-08T05:48:34;8.50;;;5.73;;
74630;SDS011;63138;55.082;38.804;2023-04-08T05:51:02;7.03;;;5.78;;
74630;SDS011;63138;55.082;38.804;2023-04-08T05:53:28;10.60;;;6.97;;
74630;SDS011;63138;55.082;38.804;2023-04-08T05:58:53;9.88;;;6.35;;
74630;SDS011;63138;55.082;38.804;2023-04-08T06:01:19;12.63;;;5.93;;
74630;SDS011;63138;55.082;38.804;2023-04-08T06:07:07;7.28;;;6.22;;
74630;SDS011;63138;55.082;38.804;2023-04-08T06:09:59;8.43;;;6.45;;
74630;SDS011;63138;55.082;38.804;2023-04-08T06:12:25;8.23;;;6.10;;
74630;SDS011;63138;55.082;38.804;2023-04-08T06:14:55;8.85;;;6.38;;
74630;SDS011;63138;55.082;38.804;2023-04-08T06:17:21;10.25;;;7.07;;
74630;SDS011;63138;55.082;38.804;2023-04-08T06:19:49;9.98;;;7.07;;
74630;SDS011;63138;55.082;38.804;2023-04-08T06:22:15;8.05;;;6.78;;
74630;SDS011;63138;55.082;38.804;2023-04-08T06:27:34;9.38;;;7.13;;
74630;SDS011;63138;55.082;38.804;2023-04-08T06:30:19;7.55;;;6.43;;
74630;SDS011;63138;55.082;38.804;2023-04-08T06:33:22;12.13;;;7.18;;
74630;SDS011;63138;55.082;38.804;2023-04-08T06:35:48;10.10;;;7.17;;
74630;SDS011;63138;55.082;38.804;2023-04-08T06:38:33;9.45;;;7.50;;
74630;SDS011;63138;55.082;38.804;2023-04-08T06:44:24;8.10;;;7.38;;
74630;SDS011;63138;55.082;38.804;2023-04-08T06:50:47;10.17;;;7.17;;
74630;SDS011;63138;55.082;38.804;2023-04-08T06:53:15;10.25;;;6.72;;
74630;SDS011;63138;55.082;38.804;2023-04-08T06:55:47;10.45;;;7.03;;
74630;SDS011;63138;55.082;38.804;2023-04-08T06:58:13;7.82;;;7.05;;
74630;SDS011;63138;55.082;38.804;2023-04-08T07:01:24;11.93;;;7.17;;
74630;SDS011;63138;55.082;38.804;2023-04-08T07:03:50;8.52;;;6.40;;
74630;SDS011;63138;55.082;38.804;2023-04-08T07:06:54;9.65;;;6.90;;
74630;SDS011;63138;55.082;38.804;2023-04-08T07:09:47;6.97;;;6.28;;
74630;SDS011;63138;55.082;38.804;2023-04-08T07:15:58;9.37;;;6.83;;
74630;SDS011;63138;55.082;38.804;2023-04-08T07:18:24;7.97;;;5.72;;
74630;SDS011;63138;55.082;38.804;2023-04-08T07:20:52;7.50;;;5.90;;
74630;SDS011;63138;55.082;38.804;2023-04-08T07:23:20;8.93;;;5.88;;
74630;SDS011;63138;55.082;38.804;2023-04-08T07:26:13;9.23;;;6.75;;
74630;SDS011;63138;55.082;38.804;2023-04-08T07:29:04;8.77;;;6.37;;
74630;SDS011;63138;55.082;38.804;2023-04-08T07:31:55;10.07;;;6.07;;
74630;SDS011;63138;55.082;38.804;2023-04-08T07:34:21;8.50;;;6.47;;
74630;SDS011;63138;55.082;38.804;2023-04-08T07:39:47;8.20;;;7.32;;
74630;SDS011;63138;55.082;38.804;2023-04-08T07:45:05;7.78;;;6.05;;
74630;SDS011;63138;55.082;38.804;2023-04-08T07:47:34;6.68;;;6.07;;
74630;SDS011;63138;55.082;38.804;2023-04-08T07:50:02;8.80;;;5.93;;
74630;SDS011;63138;55.082;38.804;2023-04-08T07:52:29;6.72;;;5.78;;
74630;SDS011;63138;55.082;38.804;2023-04-08T07:55:20;7.60;;;6.23;;
74630;SDS011;63138;55.082;38.804;2023-04-08T07:57:47;6.97;;;6.00;;
74630;SDS011;63138;55.082;38.804;2023-04-08T08:03:07;7.78;;;5.80;;
74630;SDS011;63138;55.082;38.804;2023-04-08T08:05:34;7.43;;;6.27;;
74630;SDS011;63138;55.082;38.804;2023-04-08T08:08:01;6.57;;;5.57;;
74630;SDS011;63138;55.082;38.804;2023-04-08T08:10:28;9.88;;;5.97;;
74630;SDS011;63138;55.082;38.804;2023-04-08T08:12:54;7.93;;;6.43;;
74630;SDS011;63138;55.082;38.804;2023-04-08T08:15:21;7.53;;;5.50;;
74630;SDS011;63138;55.082;38.804;2023-04-08T08:17:47;6.90;;;6.25;;
74630;SDS011;63138;55.082;38.804;2023-04-08T08:23:04;9.02;;;5.93;;
74630;SDS011;63138;55.082;38.804;2023-04-08T08:25:30;14.77;;;6.23;;
74630;SDS011;63138;55.082;38.804;2023-04-08T08:28:00;9.40;;;6.07;;
74630;SDS011;63138;55.082;38.804;2023-04-08T08:30:27;8.85;;;6.07;;
74630;SDS011;63138;55.082;38.804;2023-04-08T08:33:24;6.78;;;5.30;;
74630;SDS011;63138;55.082;38.804;2023-04-08T08:36:15;9.85;;;5.55;;
74630;SDS011;63138;55.082;38.804;2023-04-08T08:38:42;7.90;;;5.67;;
74630;SDS011;63138;55.082;38.804;2023-04-08T08:41:15;6.80;;;5.57;;
74630;SDS011;63138;55.082;38.804;2023-04-08T08:43:42;6.65;;;5.57;;
74630;SDS011;63138;55.082;38.804;2023-04-08T08:46:58;6.97;;;5.25;;
74630;SDS011;63138;55.082;38.804;2023-04-08T08:49:52;6.82;;;5.30;;
74630;SDS011;63138;55.082;38.804;2023-04-08T08:52:20;5.80;;;4.70;;
74630;SDS011;63138;55.082;38.804;2023-04-08T08:54:46;6.68;;;5.15;;
74630;SDS011;63138;55.082;38.804;2023-04-08T08:57:15;8.30;;;5.68;;
74630;SDS011;63138;55.082;38.804;2023-04-08T08:59:44;6.13;;;5.33;;
74630;SDS011;63138;55.082;38.804;2023-04-08T09:02:23;7.38;;;5.10;;
74630;SDS011;63138;55.082;38.804;2023-04-08T09:04:55;7.60;;;5.50;;
74630;SDS011;63138;55.082;38.804;2023-04-08T09:07:24;8.07;;;5.50;;
74630;SDS011;63138;55.082;38.804;2023-04-08T09:10:16;6.25;;;4.80;;
74630;SDS011;63138;55.082;38.804;2023-04-08T09:12:54;9.87;;;4.57;;
74630;SDS011;63138;55.082;38.804;2023-04-08T09:16:07;10.77;;;5.10;;
74630;SDS011;63138;55.082;38.804;2023-04-08T09:18:37;10.15;;;6.00;;
74630;SDS011;63138;55.082;38.804;2023-04-08T09:21:04;7.03;;;4.90;;
74630;SDS011;63138;55.082;38.804;2023-04-08T09:23:40;4.95;;;4.45;;
74630;SDS011;63138;55.082;38.804;2023-04-08T09:26:13;9.07;;;5.50;;
74630;SDS011;63138;55.082;38.804;2023-04-08T09:28:41;7.45;;;5.20;;
74630;SDS011;63138;55.082;38.804;2023-04-08T09:36:45;6.07;;;5.47;;
74630;SDS011;63138;55.082;38.804;2023-04-08T09:39:12;9.70;;;4.83;;
74630;SDS011;63138;55.082;38.804;2023-04-08T09:41:40;6.32;;;5.38;;
74630;SDS011;63138;55.082;38.804;2023-04-08T09:44:07;8.38;;;4.82;;
74630;SDS011;63138;55.082;38.804;2023-04-08T09:46:38;7.63;;;4.95;;
74630;SDS011;63138;55.082;38.804;2023-04-08T09:49:37;7.53;;;4.90;;
74630;SDS011;63138;55.082;38.804;2023-04-08T09:57:40;10.13;;;5.20;;
74630;SDS011;63138;55.082;38.804;2023-04-08T10:00:12;12.00;;;6.00;;
74630;SDS011;63138;55.082;38.804;2023-04-08T10:02:43;8.10;;;5.40;;
74630;SDS011;63138;55.082;38.804;2023-04-08T10:05:23;8.97;;;5.63;;
74630;SDS011;63138;55.082;38.804;2023-04-08T10:07:50;8.88;;;5.75;;
74630;SDS011;63138;55.082;38.804;2023-04-08T10:10:19;6.82;;;5.57;;
74630;SDS011;63138;55.082;38.804;2023-04-08T10:12:47;7.32;;;4.97;;
74630;SDS011;63138;55.082;38.804;2023-04-08T10:15:38;10.43;;;5.20;;
74630;SDS011;63138;55.082;38.804;2023-04-08T10:20:57;5.78;;;4.78;;
74630;SDS011;63138;55.082;38.804;2023-04-08T10:23:53;7.60;;;4.80;;
74630;SDS011;63138;55.082;38.804;2023-04-08T10:26:31;9.68;;;5.05;;
74630;SDS011;63138;55.082;38.804;2023-04-08T10:31:46;7.47;;;5.03;;
74630;SDS011;63138;55.082;38.804;2023-04-08T10:34:16;7.85;;;5.43;;
74630;SDS011;63138;55.082;38.804;2023-04-08T10:39:37;8.18;;;5.78;;
74630;SDS011;63138;55.082;38.804;2023-04-08T10:42:04;7.85;;;5.65;;
74630;SDS011;63138;55.082;38.804;2023-04-08T10:44:33;9.20;;;4.70;;
74630;SDS011;63138;55.082;38.804;2023-04-08T10:46:58;4.60;;;4.00;;
74630;SDS011;63138;55.082;38.804;2023-04-08T10:49:33;6.38;;;4.13;;
74630;SDS011;63138;55.082;38.804;2023-04-08T10:52:00;6.50;;;4.60;;
74630;SDS011;63138;55.082;38.804;2023-04-08T10:54:32;7.63;;;3.70;;
74630;SDS011;63138;55.082;38.804;2023-04-08T10:56:58;8.70;;;4.05;;
74630;SDS011;63138;55.082;38.804;2023-04-08T10:59:26;6.95;;;4.07;;
74630;SDS011;63138;55.082;38.804;2023-04-08T11:01:57;5.40;;;4.18;;
74630;SDS011;63138;55.082;38.804;2023-04-08T11:05:13;9.68;;;5.35;;
74630;SDS011;63138;55.082;38.804;2023-04-08T11:07:45;8.33;;;4.77;;
74630;SDS011;63138;55.082;38.804;2023-04-08T11:10:12;7.03;;;4.80;;
74630;SDS011;63138;55.082;38.804;2023-04-08T11:12:38;6.50;;;4.18;;
74630;SDS011;63138;55.082;38.804;2023-04-08T11:15:04;6.43;;;4.45;;
74630;SDS011;63138;55.082;38.804;2023-04-08T11:17:56;8.32;;;4.78;;
74630;SDS011;63138;55.082;38.804;2023-04-08T11:20:23;7.27;;;5.00;;
74630;SDS011;63138;55.082;38.804;2023-04-08T11:22:49;9.80;;;5.07;;
74630;SDS011;63138;55.082;38.804;2023-04-08T11:25:18;7.15;;;4.28;;
74630;SDS011;63138;55.082;38.804;2023-04-08T11:27:44;10.82;;;4.88;;
74630;SDS011;63138;55.082;38.804;2023-04-08T11:30:11;9.00;;;5.28;;
74630;SDS011;63138;55.082;38.804;2023-04-08T11:32:39;8.13;;;4.93;;
74630;SDS011;63138;55.082;38.804;2023-04-08T11:35:10;6.20;;;4.15;;
74630;SDS011;63138;55.082;38.804;2023-04-08T11:37:40;7.40;;;4.28;;
74630;SDS011;63138;55.082;38.804;2023-04-08T11:40:10;7.10;;;4.80;;
74630;SDS011;63138;55.082;38.804;2023-04-08T11:42:39;4.63;;;3.60;;
74630;SDS011;63138;55.082;38.804;2023-04-08T11:45:12;8.63;;;5.13;;
74630;SDS011;63138;55.082;38.804;2023-04-08T11:47:43;7.40;;;5.07;;
74630;SDS011;63138;55.082;38.804;2023-04-08T11:50:12;9.13;;;4.60;;
74630;SDS011;63138;55.082;38.804;2023-04-08T11:52:45;8.07;;;4.10;;
74630;SDS011;63138;55.082;38.804;2023-04-08T11:55:37;9.13;;;4.23;;
74630;SDS011;63138;55.082;38.804;2023-04-08T12:00:56;8.18;;;4.97;;
74630;SDS011;63138;55.082;38.804;2023-04-08T12:03:26;6.90;;;3.97;;
74630;SDS011;63138;55.082;38.804;2023-04-08T12:05:53;7.07;;;5.10;;
74630;SDS011;63138;55.082;38.804;2023-04-08T12:08:46;8.30;;;4.93;;
74630;SDS011;63138;55.082;38.804;2023-04-08T12:11:12;6.32;;;4.65;;
74630;SDS011;63138;55.082;38.804;2023-04-08T12:13:40;6.97;;;4.55;;
74630;SDS011;63138;55.082;38.804;2023-04-08T12:16:07;9.15;;;5.22;;
74630;SDS011;63138;55.082;38.804;2023-04-08T12:18:33;7.17;;;5.10;;
74630;SDS011;63138;55.082;38.804;2023-04-08T12:20:59;8.77;;;4.72;;
74630;SDS011;63138;55.082;38.804;2023-04-08T12:23:25;8.73;;;5.47;;
74630;SDS011;63138;55.082;38.804;2023-04-08T12:25:54;8.35;;;4.68;;
74630;SDS011;63138;55.082;38.804;2023-04-08T12:28:21;10.60;;;6.15;;
74630;SDS011;63138;55.082;38.804;2023-04-08T12:30:47;11.10;;;5.77;;
74630;SDS011;63138;55.082;38.804;2023-04-08T12:33:15;9.43;;;5.95;;
74630;SDS011;63138;55.082;38.804;2023-04-08T12:35:42;8.50;;;5.88;;
74630;SDS011;63138;55.082;38.804;2023-04-08T12:38:09;11.30;;;6.45;;
74630;SDS011;63138;55.082;38.804;2023-04-08T12:40:35;14.02;;;7.30;;
74630;SDS011;63138;55.082;38.804;2023-04-08T12:43:10;10.50;;;6.73;;
74630;SDS011;63138;55.082;38.804;2023-04-08T12:45:39;8.48;;;6.50;;
74630;SDS011;63138;55.082;38.804;2023-04-08T12:48:07;11.13;;;6.60;;
74630;SDS011;63138;55.082;38.804;2023-04-08T12:50:33;9.65;;;6.72;;
74630;SDS011;63138;55.082;38.804;2023-04-08T12:52:59;10.20;;;6.60;;
74630;SDS011;63138;55.082;38.804;2023-04-08T12:55:26;10.67;;;6.70;;
74630;SDS011;63138;55.082;38.804;2023-04-08T12:57:52;13.52;;;7.60;;
74630;SDS011;63138;55.082;38.804;2023-04-08T13:00:18;12.25;;;6.68;;
74630;SDS011;63138;55.082;38.804;2023-04-08T13:02:46;11.48;;;6.60;;
74630;SDS011;63138;55.082;38.804;2023-04-08T13:05:13;13.70;;;7.80;;
74630;SDS011;63138;55.082;38.804;2023-04-08T13:07:40;11.47;;;5.93;;
74630;SDS011;63138;55.082;38.804;2023-04-08T13:10:06;11.57;;;7.68;;
74630;SDS011;63138;55.082;38.804;2023-04-08T13:12:35;13.35;;;8.75;;
74630;SDS011;63138;55.082;38.804;2023-04-08T13:15:05;16.48;;;10.90;;
74630;SDS011;63138;55.082;38.804;2023-04-08T13:17:33;18.70;;;11.68;;
74630;SDS011;63138;55.082;38.804;2023-04-08T13:19:59;16.10;;;10.67;;
74630;SDS011;63138;55.082;38.804;2023-04-08T13:22:52;13.35;;;9.50;;
74630;SDS011;63138;55.082;38.804;2023-04-08T13:25:23;17.05;;;11.70;;
74630;SDS011;63138;55.082;38.804;2023-04-08T13:27:49;17.85;;;11.15;;
74630;SDS011;63138;55.082;38.804;2023-04-08T13:30:16;15.43;;;10.03;;
74630;SDS011;63138;55.082;38.804;2023-04-08T13:32:46;19.13;;;12.07;;
74630;SDS011;63138;55.082;38.804;2023-04-08T13:35:13;18.52;;;13.50;;
74630;SDS011;63138;55.082;38.804;2023-04-08T13:37:40;16.77;;;11.57;;
74630;SDS011;63138;55.082;38.804;2023-04-08T13:40:06;21.15;;;14.43;;
74630;SDS011;63138;55.082;38.804;2023-04-08T13:42:34;16.53;;;11.93;;
74630;SDS011;63138;55.082;38.804;2023-04-08T13:45:00;20.83;;;12.75;;
74630;SDS011;63138;55.082;38.804;2023-04-08T13:47:27;17.65;;;10.25;;
74630;SDS011;63138;55.082;38.804;2023-04-08T13:49:59;19.95;;;12.85;;
74630;SDS011;63138;55.082;38.804;2023-04-08T13:55:18;17.90;;;12.33;;
74630;SDS011;63138;55.082;38.804;2023-04-08T13:57:47;22.40;;;12.45;;
74630;SDS011;63138;55.082;38.804;2023-04-08T14:00:13;17.55;;;12.80;;
74630;SDS011;63138;55.082;38.804;2023-04-08T14:02:41;18.58;;;9.48;;
74630;SDS011;63138;55.082;38.804;2023-04-08T14:05:07;18.10;;;9.52;;
74630;SDS011;63138;55.082;38.804;2023-04-08T14:07:33;15.70;;;9.87;;
74630;SDS011;63138;55.082;38.804;2023-04-08T14:09:59;15.55;;;10.32;;
74630;SDS011;63138;55.082;38.804;2023-04-08T14:12:25;17.15;;;10.55;;
74630;SDS011;63138;55.082;38.804;2023-04-08T14:14:51;14.13;;;9.38;;
74630;SDS011;63138;55.082;38.804;2023-04-08T14:17:17;18.83;;;9.30;;
74630;SDS011;63138;55.082;38.804;2023-04-08T14:22:44;10.90;;;7.43;;
74630;SDS011;63138;55.082;38.804;2023-04-08T14:25:11;16.30;;;8.57;;
74630;SDS011;63138;55.082;38.804;2023-04-08T14:27:37;17.15;;;9.88;;
74630;SDS011;63138;55.082;38.804;2023-04-08T14:30:03;14.10;;;8.30;;
74630;SDS011;63138;55.082;38.804;2023-04-08T14:32:30;15.32;;;8.30;;
74630;SDS011;63138;55.082;38.804;2023-04-08T14:34:56;13.80;;;9.13;;
74630;SDS011;63138;55.082;38.804;2023-04-08T14:37:23;19.38;;;9.85;;
74630;SDS011;63138;55.082;38.804;2023-04-08T14:39:49;11.85;;;7.65;;
74630;SDS011;63138;55.082;38.804;2023-04-08T14:42:16;11.93;;;5.97;;
74630;SDS011;63138;55.082;38.804;2023-04-08T14:44:42;13.02;;;7.60;;
74630;SDS011;63138;55.082;38.804;2023-04-08T14:47:08;23.35;;;9.60;;
74630;SDS011;63138;55.082;38.804;2023-04-08T14:49:36;19.08;;;9.93;;
74630;SDS011;63138;55.082;38.804;2023-04-08T14:52:02;22.65;;;11.50;;
74630;SDS011;63138;55.082;38.804;2023-04-08T14:54:28;12.63;;;7.37;;
74630;SDS011;63138;55.082;38.804;2023-04-08T14:56:54;12.30;;;6.35;;
74630;SDS011;63138;55.082;38.804;2023-04-08T14:59:21;13.07;;;7.45;;
74630;SDS011;63138;55.082;38.804;2023-04-08T15:02:20;11.57;;;6.70;;
74630;SDS011;63138;55.082;38.804;2023-04-08T15:04:46;15.53;;;8.60;;
74630;SDS011;63138;55.082;38.804;2023-04-08T15:07:13;12.23;;;7.32;;
74630;SDS011;63138;55.082;38.804;2023-04-08T15:09:39;11.30;;;7.43;;
74630;SDS011;63138;55.082;38.804;2023-04-08T15:12:30;12.82;;;7.00;;
74630;SDS011;63138;55.082;38.804;2023-04-08T15:14:58;21.03;;;10.93;;
74630;SDS011;63138;55.082;38.804;2023-04-08T15:17:24;17.00;;;10.68;;
74630;SDS011;63138;55.082;38.804;2023-04-08T15:19:54;14.82;;;9.57;;
74630;SDS011;63138;55.082;38.804;2023-04-08T15:22:22;15.30;;;9.27;;
74630;SDS011;63138;55.082;38.804;2023-04-08T15:24:48;18.60;;;10.40;;
74630;SDS011;63138;55.082;38.804;2023-04-08T15:27:14;16.88;;;10.15;;
74630;SDS011;63138;55.082;38.804;2023-04-08T15:29:41;17.50;;;10.18;;
74630;SDS011;63138;55.082;38.804;2023-04-08T15:32:08;17.23;;;10.00;;
74630;SDS011;63138;55.082;38.804;2023-04-08T15:34:39;16.80;;;10.67;;
74630;SDS011;63138;55.082;38.804;2023-04-08T15:37:06;19.23;;;9.70;;
74630;SDS011;63138;55.082;38.804;2023-04-08T15:42:26;9.57;;;6.72;;
74630;SDS011;63138;55.082;38.804;2023-04-08T15:45:00;12.73;;;8.25;;
74630;SDS011;63138;55.082;38.804;2023-04-08T15:47:29;15.13;;;7.80;;
74630;SDS011;63138;55.082;38.804;2023-04-08T15:53:17;14.30;;;7.72;;
74630;SDS011;63138;55.082;38.804;2023-04-08T15:55:43;15.32;;;8.40;;
74630;SDS011;63138;55.082;38.804;2023-04-08T15:58:09;16.15;;;7.45;;
74630;SDS011;63138;55.082;38.804;2023-04-08T16:00:35;13.00;;;7.23;;
74630;SDS011;63138;55.082;38.804;2023-04-08T16:03:04;14.20;;;8.02;;
74630;SDS011;63138;55.082;38.804;2023-04-08T16:05:33;13.02;;;7.95;;
74630;SDS011;63138;55.082;38.804;2023-04-08T16:08:00;16.63;;;6.47;;
74630;SDS011;63138;55.082;38.804;2023-04-08T16:10:26;14.35;;;7.55;;
74630;SDS011;63138;55.082;38.804;2023-04-08T16:13:20;15.32;;;7.25;;
74630;SDS011;63138;55.082;38.804;2023-04-08T16:15:46;11.13;;;6.07;;
74630;SDS011;63138;55.082;38.804;2023-04-08T16:18:13;9.40;;;5.70;;
74630;SDS011;63138;55.082;38.804;2023-04-08T16:20:38;11.80;;;6.20;;
74630;SDS011;63138;55.082;38.804;2023-04-08T16:23:06;9.38;;;5.65;;
74630;SDS011;63138;55.082;38.804;2023-04-08T16:26:02;12.05;;;6.03;;
74630;SDS011;63138;55.082;38.804;2023-04-08T16:28:41;15.85;;;7.70;;
74630;SDS011;63138;55.082;38.804;2023-04-08T16:31:12;13.20;;;7.53;;